KAAF/AAF METAR and TAF weather

Enter ICAO airport designator
Station Type Date Time Source
KAAF METAR 2020/09/22 02:53 UTC NOAA

KAAF 220253Z AUTO 07010KT 10SM CLR 22/17 A3015 RMK AO2 SLP208 T02220167 51013


Station Type Date Time Source
KAAF Decoded METAR 2020/09/22 02:53 UTC NOAA

APALACHICOLA MUNICIPAL AIRPORT, FL, United States (KAAF) 29-44N 085-01W 5M
Sep 21, 2020 - 10:53 PM EDT / 2020.09.22 0253 UTC
Wind: from the ENE (070 degrees) at 12 MPH (10 KT):0
Visibility: 10 mile(s):0
Sky conditions: clear
Temperature: 72.0 F (22.2 C)
Dew Point: 62.1 F (16.7 C)
Relative Humidity: 71%
Pressure (altimeter): 30.15 in. Hg (1020 hPa)
Pressure tendency: 0.04 inches (1.3 hPa) higher than three hours ago
ob: KAAF 220253Z AUTO 07010KT 10SM CLR 22/17 A3015 RMK AO2 SLP208 T02220167 51013
cycle: 3

Station Type Date Time Source
KAAF TAF UTC NOAA

Error!

Example: see airport list